Aviation Digital Data Service (ADDS)

Output produced by METARs form (1328 UTC 25 February 2018)
found at http://aviationweather.gov/adds/metars/
 
KSYR 251306Z 2513/2612 12017KT P6SM -SHRA FEW020 BKN025 OVC040 WS020/15045KT 
     FM251500 16015G25KT P6SM -SHRA BKN025 OVC040 WS020/17045KT 
     FM252000 23010KT P6SM BKN040 
     FM260000 26010KT P6SM SCT250